KMWH

Grant Co International Airport

Moses Lake, Washington, USA
METAR KMWH 190852Z AUTO 35004KT 10SM CLR 07/M01 A2999 RMK AO2 SLP156 T00671006 53001 $
Observed Flight Rules
Sep-19 @ 08:52 UTC (12 minutes ago) Visual Flight Rules
Wind Visibility Clouds
350° at 4 knots 10 miles
  • Clear skies
Temperatures Readings
Current 7°C / 45°F
Dewpoint -1°C / 30°F
Humidity 57%
Altimeter 29.99" Hg
Pressure 1015.6 hPa
Elevation 362
METAR KMWH 190852Z AUTO 35004KT 10SM CLR 07/M01 A2999 RMK AO2 SLP156 T00671006 53001 $
Observed Flight Rules
Sep-19 @ 08:52 UTC
(12 minutes ago)
VFR
Wind Visibility
350° at 4 knots 10 miles
Clouds
  • Clear skies
Temperature Dewpoint
7°C / 45°F -1°C / 30°F
Humidity Altimeter Pressure
57% 29.99" Hg 1015.6 hPa